createdAt,value
2019-03-31T00:00:40.828Z,9.87
2019-03-31T00:01:46.059Z,9.79
2019-03-31T00:02:49.531Z,9.83
2019-03-31T00:03:52.935Z,9.83
2019-03-31T00:04:56.369Z,9.77
2019-03-31T00:05:59.873Z,9.76
2019-03-31T00:07:03.406Z,9.75
2019-03-31T00:08:06.848Z,9.72
2019-03-31T00:09:10.456Z,9.86
2019-03-31T00:10:14.065Z,9.85
2019-03-31T00:11:17.658Z,9.87
2019-03-31T00:12:21.176Z,9.78
2019-03-31T00:13:24.690Z,9.80
2019-03-31T00:14:28.122Z,9.77
2019-03-31T00:15:31.569Z,9.60
2019-03-31T00:16:35.026Z,9.74
2019-03-31T00:17:38.456Z,9.79
2019-03-31T00:18:41.973Z,9.83
2019-03-31T00:19:45.415Z,9.86
2019-03-31T00:20:48.844Z,9.68
2019-03-31T00:21:52.299Z,9.53
2019-03-31T00:22:55.790Z,9.42
2019-03-31T00:23:59.221Z,9.30
2019-03-31T00:25:03.084Z,9.29
2019-03-31T00:26:06.523Z,9.29
2019-03-31T00:27:10.002Z,9.27
2019-03-31T00:28:13.439Z,9.25
2019-03-31T00:29:16.947Z,9.23
2019-03-31T00:30:20.554Z,9.26
2019-03-31T00:31:23.997Z,9.32
2019-03-31T00:32:27.438Z,9.35
2019-03-31T00:33:30.973Z,9.39
2019-03-31T00:34:34.404Z,9.47
2019-03-31T00:35:37.834Z,9.45
2019-03-31T00:36:41.277Z,9.46
2019-03-31T00:37:44.778Z,9.52
2019-03-31T00:38:48.280Z,9.56
2019-03-31T00:39:51.706Z,9.55
2019-03-31T00:40:55.137Z,9.48
2019-03-31T00:41:58.588Z,9.42
2019-03-31T00:43:02.044Z,9.41
2019-03-31T00:44:05.491Z,9.44
2019-03-31T00:45:09.092Z,9.45
2019-03-31T00:46:12.539Z,9.44
2019-03-31T00:47:16.057Z,9.40
2019-03-31T00:48:19.481Z,9.47
2019-03-31T00:49:22.914Z,9.53
2019-03-31T00:50:26.364Z,9.55
2019-03-31T00:51:29.807Z,9.54
2019-03-31T00:52:33.265Z,9.57
2019-03-31T00:53:36.685Z,9.57
2019-03-31T00:54:40.189Z,9.44
2019-03-31T00:55:43.628Z,9.34
2019-03-31T00:56:47.066Z,9.25
2019-03-31T00:57:50.550Z,9.21
2019-03-31T00:58:53.954Z,9.26
2019-03-31T00:59:57.391Z,9.38
2019-03-31T01:01:03.600Z,9.51
2019-03-31T01:02:08.935Z,9.48
2019-03-31T01:03:12.365Z,9.39
2019-03-31T01:04:17.036Z,9.32
2019-03-31T01:05:20.540Z,9.17
2019-03-31T01:06:24.693Z,9.23
2019-03-31T01:07:28.149Z,9.26
2019-03-31T01:08:33.890Z,9.18
2019-03-31T01:09:37.491Z,9.13
2019-03-31T01:10:42.071Z,9.08
2019-03-31T01:11:45.842Z,9.04
2019-03-31T01:12:49.355Z,9.02
2019-03-31T01:13:52.957Z,9.06
2019-03-31T01:14:56.735Z,9.09
2019-03-31T01:16:00.408Z,9.02
2019-03-31T01:17:06.423Z,9.00
2019-03-31T01:18:10.882Z,9.10
2019-03-31T01:19:15.224Z,9.04
2019-03-31T01:20:18.677Z,9.05
2019-03-31T01:21:22.362Z,9.06
2019-03-31T01:22:25.888Z,9.07
2019-03-31T01:23:29.395Z,9.06
2019-03-31T01:24:32.967Z,8.91
2019-03-31T01:25:36.402Z,8.85
2019-03-31T01:26:39.965Z,8.85
2019-03-31T01:27:43.650Z,8.89
2019-03-31T01:28:47.163Z,8.96
2019-03-31T01:29:50.612Z,8.98
2019-03-31T01:30:54.183Z,9.01
2019-03-31T01:31:58.060Z,9.03
2019-03-31T01:33:01.820Z,8.97
2019-03-31T01:34:05.598Z,8.88
2019-03-31T01:35:11.304Z,8.86
2019-03-31T01:36:15.476Z,8.74
2019-03-31T01:37:20.281Z,8.66
2019-03-31T01:38:24.171Z,8.65
2019-03-31T01:39:29.107Z,8.69
2019-03-31T01:40:32.679Z,8.74
2019-03-31T01:41:36.250Z,8.87
2019-03-31T01:42:39.759Z,8.85
2019-03-31T01:43:43.206Z,8.77
2019-03-31T01:44:46.716Z,8.73
2019-03-31T01:45:50.211Z,8.85
2019-03-31T01:46:53.852Z,8.89
2019-03-31T01:47:57.380Z,8.79
2019-03-31T01:49:01.051Z,8.75
2019-03-31T01:50:09.515Z,8.72
2019-03-31T01:51:12.949Z,8.64
2019-03-31T01:52:16.450Z,8.63
2019-03-31T01:53:19.972Z,8.62
2019-03-31T01:54:23.476Z,8.63
2019-03-31T01:55:26.970Z,8.69
2019-03-31T01:56:30.446Z,8.65
2019-03-31T01:57:33.834Z,8.66
2019-03-31T01:58:37.285Z,8.58
2019-03-31T01:59:40.714Z,8.49
2019-03-31T02:00:46.065Z,8.44
2019-03-31T02:02:03.302Z,8.45
2019-03-31T02:02:54.868Z,8.51
2019-03-31T02:03:58.387Z,8.66
2019-03-31T02:05:01.818Z,8.67
2019-03-31T02:06:05.327Z,8.63
2019-03-31T02:07:08.997Z,8.63
2019-03-31T02:08:12.503Z,8.57
2019-03-31T02:09:15.980Z,8.49
2019-03-31T02:10:19.411Z,8.53
2019-03-31T02:11:22.848Z,8.53
2019-03-31T02:12:26.276Z,8.60
2019-03-31T02:13:29.783Z,8.66
2019-03-31T02:14:33.310Z,8.46
2019-03-31T02:15:36.806Z,8.46
2019-03-31T02:16:40.245Z,8.42
2019-03-31T02:17:43.677Z,8.41
2019-03-31T02:18:47.127Z,8.46
2019-03-31T02:19:50.563Z,8.46
2019-03-31T02:20:54.084Z,8.54
2019-03-31T02:21:57.506Z,8.58
2019-03-31T02:23:01.080Z,8.60
2019-03-31T02:24:04.671Z,8.64
2019-03-31T02:25:08.171Z,8.60
2019-03-31T02:26:11.611Z,8.60
2019-03-31T02:27:15.045Z,8.53
2019-03-31T02:28:18.487Z,8.55
2019-03-31T02:29:22.011Z,8.62
2019-03-31T02:30:25.449Z,8.58
2019-03-31T02:31:28.948Z,8.61
2019-03-31T02:32:32.379Z,8.47
2019-03-31T02:33:35.819Z,8.52
2019-03-31T02:34:39.267Z,8.47
2019-03-31T02:35:42.697Z,8.44
2019-03-31T02:36:46.126Z,8.40
2019-03-31T02:37:49.554Z,8.35
2019-03-31T02:38:53.018Z,8.35
2019-03-31T02:39:56.483Z,8.38
2019-03-31T02:41:00.026Z,8.43
2019-03-31T02:42:03.457Z,8.45
2019-03-31T02:43:06.884Z,8.39
2019-03-31T02:44:10.336Z,8.39
2019-03-31T02:45:14.148Z,8.39
2019-03-31T02:46:17.648Z,8.39
2019-03-31T02:47:21.146Z,8.19
2019-03-31T02:48:24.573Z,8.19
2019-03-31T02:49:28.040Z,8.25
2019-03-31T02:50:46.008Z,8.24
2019-03-31T02:51:49.445Z,8.05
2019-03-31T02:52:53.005Z,8.16
2019-03-31T02:53:56.721Z,8.15
2019-03-31T02:55:00.520Z,8.19
2019-03-31T02:56:04.876Z,8.24
2019-03-31T02:57:08.443Z,8.16
2019-03-31T02:58:14.235Z,8.07
2019-03-31T02:59:19.904Z,8.03
2019-03-31T03:00:23.404Z,8.16
2019-03-31T03:01:27.515Z,8.20
2019-03-31T03:02:41.379Z,8.20
2019-03-31T03:03:39.178Z,8.19
2019-03-31T03:04:43.166Z,8.20
2019-03-31T03:05:47.332Z,8.17
2019-03-31T03:06:53.806Z,8.20
2019-03-31T03:07:58.181Z,8.20
2019-03-31T03:09:06.333Z,8.26
2019-03-31T03:10:10.189Z,8.27
2019-03-31T03:11:16.900Z,8.28
2019-03-31T03:12:22.572Z,8.17
2019-03-31T03:13:27.798Z,8.11
2019-03-31T03:14:34.454Z,8.03
2019-03-31T03:15:52.832Z,8.04
2019-03-31T03:16:56.430Z,7.93
2019-03-31T03:17:59.860Z,7.86
2019-03-31T03:19:03.380Z,7.82
2019-03-31T03:20:07.159Z,7.79
2019-03-31T03:21:10.585Z,7.79
2019-03-31T03:22:14.020Z,7.71
2019-03-31T03:23:17.459Z,7.70
2019-03-31T03:24:20.897Z,7.70
2019-03-31T03:25:24.349Z,7.69
2019-03-31T03:26:27.777Z,7.68
2019-03-31T03:27:31.487Z,7.71
2019-03-31T03:28:34.919Z,7.79
2019-03-31T03:29:38.361Z,7.86
2019-03-31T03:30:41.872Z,7.86
2019-03-31T03:31:45.437Z,7.87
2019-03-31T03:33:13.495Z,7.78
2019-03-31T03:33:54.021Z,7.60
2019-03-31T03:34:57.544Z,7.53
2019-03-31T03:36:00.981Z,7.62
2019-03-31T03:37:04.547Z,7.70
2019-03-31T03:38:07.983Z,7.70
2019-03-31T03:39:11.435Z,7.69
2019-03-31T03:40:15.018Z,7.69
2019-03-31T03:41:18.522Z,7.80
2019-03-31T03:42:21.960Z,7.82
2019-03-31T03:43:25.378Z,7.61
2019-03-31T03:44:28.828Z,7.61
2019-03-31T03:45:39.684Z,7.62
2019-03-31T03:46:43.119Z,7.62
2019-03-31T03:47:46.650Z,7.64
2019-03-31T03:48:50.161Z,7.70
2019-03-31T03:49:53.617Z,7.74
2019-03-31T03:50:57.191Z,7.72
2019-03-31T03:52:00.619Z,7.65
2019-03-31T03:53:04.131Z,7.64
2019-03-31T03:54:07.590Z,7.75
2019-03-31T03:55:11.167Z,7.81
2019-03-31T03:56:14.596Z,7.80
2019-03-31T03:57:18.029Z,7.85
2019-03-31T03:58:21.537Z,7.86
2019-03-31T03:59:24.964Z,7.86
2019-03-31T04:00:28.463Z,7.90
2019-03-31T04:01:32.179Z,7.94
2019-03-31T04:02:35.637Z,7.95
2019-03-31T04:03:39.092Z,7.95
2019-03-31T04:04:42.660Z,7.87
2019-03-31T04:05:46.184Z,7.87
2019-03-31T04:06:49.613Z,7.87
2019-03-31T04:07:53.046Z,7.93
2019-03-31T04:08:56.475Z,7.92
2019-03-31T04:09:59.913Z,7.92
2019-03-31T04:11:11.993Z,7.91
2019-03-31T04:12:15.438Z,7.98
2019-03-31T04:13:18.866Z,7.98
2019-03-31T04:14:22.318Z,7.83
2019-03-31T04:15:25.864Z,7.83
2019-03-31T04:16:29.361Z,7.83
2019-03-31T04:17:32.791Z,7.91
2019-03-31T04:18:36.225Z,7.91
2019-03-31T04:19:39.674Z,7.94
2019-03-31T04:20:43.110Z,7.94
2019-03-31T04:21:46.531Z,7.88
2019-03-31T04:22:49.965Z,7.79
2019-03-31T04:23:53.552Z,7.79
2019-03-31T04:24:56.983Z,7.76
2019-03-31T04:26:00.450Z,7.71
2019-03-31T04:27:03.956Z,7.74
2019-03-31T04:28:07.415Z,7.74
2019-03-31T04:29:10.912Z,7.66
2019-03-31T04:30:14.349Z,7.58
2019-03-31T04:31:18.053Z,7.61
2019-03-31T04:32:21.574Z,7.66
2019-03-31T04:33:25.094Z,7.68
2019-03-31T04:34:28.664Z,7.68
2019-03-31T04:35:32.217Z,7.69
2019-03-31T04:36:35.734Z,7.78
2019-03-31T04:37:39.181Z,7.92
2019-03-31T04:38:42.690Z,7.97
2019-03-31T04:39:46.202Z,7.95
2019-03-31T04:40:49.744Z,7.81
2019-03-31T04:41:53.183Z,7.81
2019-03-31T04:42:56.622Z,7.79
2019-03-31T04:44:00.136Z,7.74
2019-03-31T04:45:03.915Z,7.74
2019-03-31T04:46:07.451Z,7.72
2019-03-31T04:47:10.901Z,7.66
2019-03-31T04:48:14.416Z,7.66
2019-03-31T04:49:17.867Z,7.66
2019-03-31T04:50:21.499Z,7.44
2019-03-31T04:51:25.034Z,7.43
2019-03-31T04:52:28.474Z,7.43
2019-03-31T04:53:32.036Z,7.43
2019-03-31T04:54:35.465Z,7.45
2019-03-31T04:55:38.992Z,7.46
2019-03-31T04:56:42.507Z,7.56
2019-03-31T04:57:46.021Z,7.56
2019-03-31T04:58:49.537Z,7.60
2019-03-31T04:59:52.997Z,7.57
2019-03-31T05:00:56.654Z,7.57
2019-03-31T05:02:00.184Z,7.58
2019-03-31T05:03:03.696Z,7.53
2019-03-31T05:04:07.149Z,7.53
2019-03-31T05:05:10.777Z,7.45
2019-03-31T05:06:14.368Z,7.37
2019-03-31T05:07:17.876Z,7.26
2019-03-31T05:08:21.409Z,7.21
2019-03-31T05:09:24.920Z,7.18
2019-03-31T05:10:28.370Z,7.18
2019-03-31T05:11:31.823Z,7.24
2019-03-31T05:12:35.335Z,7.23
2019-03-31T05:13:38.842Z,7.31
2019-03-31T05:14:42.285Z,7.39
2019-03-31T05:15:45.758Z,7.45
2019-03-31T05:16:49.212Z,7.46
2019-03-31T05:17:52.667Z,7.42
2019-03-31T05:18:56.124Z,7.42
2019-03-31T05:19:59.590Z,7.42
2019-03-31T05:21:03.267Z,7.37
2019-03-31T05:22:06.696Z,7.31
2019-03-31T05:23:10.130Z,7.32
2019-03-31T05:24:13.604Z,7.32
2019-03-31T05:25:17.039Z,7.33
2019-03-31T05:26:20.571Z,7.38
2019-03-31T05:27:24.082Z,7.36
2019-03-31T05:28:27.529Z,7.39
2019-03-31T05:29:30.989Z,7.53
2019-03-31T05:30:34.418Z,7.53
2019-03-31T05:31:37.932Z,7.51
2019-03-31T05:32:41.369Z,7.36
2019-03-31T05:33:44.827Z,7.36
2019-03-31T05:34:48.273Z,7.44
2019-03-31T05:35:51.806Z,7.48
2019-03-31T05:36:55.362Z,7.60
2019-03-31T05:37:58.822Z,7.61
2019-03-31T05:39:02.324Z,7.58
2019-03-31T05:40:06.018Z,7.57
2019-03-31T05:41:09.559Z,7.54
2019-03-31T05:42:12.997Z,7.54
2019-03-31T05:43:16.442Z,7.46
2019-03-31T05:44:19.873Z,7.46
2019-03-31T05:45:23.306Z,7.39
2019-03-31T05:46:26.768Z,7.43
2019-03-31T05:47:30.321Z,7.54
2019-03-31T05:48:33.742Z,7.61
2019-03-31T05:49:37.182Z,7.60
2019-03-31T05:50:40.625Z,7.60
2019-03-31T05:51:44.201Z,7.71
2019-03-31T05:52:47.705Z,7.89
2019-03-31T05:53:51.207Z,7.89
2019-03-31T05:54:54.782Z,7.95
2019-03-31T05:55:58.366Z,8.11
2019-03-31T05:57:01.883Z,8.15
2019-03-31T05:58:05.451Z,8.10
2019-03-31T05:59:08.888Z,8.12
2019-03-31T06:00:12.482Z,8.17
2019-03-31T06:01:16.019Z,8.10
2019-03-31T06:02:19.712Z,8.03
2019-03-31T06:03:23.142Z,8.08
2019-03-31T06:04:33.049Z,8.08
2019-03-31T06:05:31.793Z,8.19
2019-03-31T06:06:37.048Z,8.14
2019-03-31T06:07:40.384Z,8.18
2019-03-31T06:08:43.879Z,8.16
2019-03-31T06:09:47.307Z,8.20
2019-03-31T06:10:50.801Z,8.14
2019-03-31T06:11:54.254Z,8.16
2019-03-31T06:12:57.700Z,8.23
2019-03-31T06:14:01.131Z,8.14
2019-03-31T06:15:05.200Z,8.14
2019-03-31T06:16:08.697Z,8.16
2019-03-31T06:17:12.307Z,8.14
2019-03-31T06:18:15.796Z,8.20
2019-03-31T06:19:19.269Z,8.27
2019-03-31T06:20:22.657Z,8.37
2019-03-31T06:21:29.097Z,8.53
2019-03-31T06:22:31.333Z,8.65
2019-03-31T06:23:34.755Z,8.75
2019-03-31T06:24:38.180Z,8.88
2019-03-31T06:25:41.611Z,8.88
2019-03-31T06:26:45.068Z,8.89
2019-03-31T06:27:48.609Z,8.90
2019-03-31T06:28:52.041Z,9.01
2019-03-31T06:29:55.579Z,9.01
2019-03-31T06:30:59.017Z,9.06
2019-03-31T06:32:02.553Z,9.12
2019-03-31T06:33:06.126Z,9.11
2019-03-31T06:34:09.728Z,9.14
2019-03-31T06:35:13.305Z,9.17
2019-03-31T06:36:16.729Z,9.22
2019-03-31T06:37:20.174Z,9.24
2019-03-31T06:38:23.602Z,9.29
2019-03-31T06:39:27.039Z,9.28
2019-03-31T06:40:30.542Z,9.27
2019-03-31T06:41:34.052Z,9.33
2019-03-31T06:42:37.477Z,9.28
2019-03-31T06:43:40.904Z,9.38
2019-03-31T06:44:44.333Z,9.48
2019-03-31T06:45:47.758Z,9.48
2019-03-31T06:46:51.206Z,9.41
2019-03-31T06:47:54.634Z,9.41
2019-03-31T06:48:58.129Z,9.43
2019-03-31T06:50:01.565Z,9.49
2019-03-31T06:51:05.050Z,9.49
2019-03-31T06:52:08.505Z,9.55
2019-03-31T06:53:11.938Z,9.62
2019-03-31T06:54:15.367Z,9.69
2019-03-31T06:55:18.872Z,9.74
2019-03-31T06:56:22.548Z,9.80
2019-03-31T06:57:25.989Z,9.78
2019-03-31T06:58:29.411Z,9.81
2019-03-31T06:59:32.844Z,9.85
2019-03-31T07:00:36.422Z,9.74
2019-03-31T07:01:39.846Z,9.67
2019-03-31T07:02:43.297Z,9.67
2019-03-31T07:03:46.740Z,9.72
2019-03-31T07:05:00.406Z,9.74
2019-03-31T07:05:55.450Z,9.71
2019-03-31T07:06:59.112Z,9.71
2019-03-31T07:08:03.213Z,9.75
2019-03-31T07:09:06.784Z,9.72
2019-03-31T07:10:10.581Z,9.71
2019-03-31T07:11:14.144Z,9.72
2019-03-31T07:12:17.762Z,9.73
2019-03-31T07:13:21.335Z,9.83
2019-03-31T07:14:24.833Z,9.91
2019-03-31T07:15:28.400Z,9.91
2019-03-31T07:16:31.903Z,9.94
2019-03-31T07:17:35.557Z,10.00
2019-03-31T07:18:39.107Z,10.02
2019-03-31T07:19:42.606Z,10.04
2019-03-31T07:20:46.181Z,10.14
2019-03-31T07:21:49.668Z,10.16
2019-03-31T07:22:53.194Z,10.18
2019-03-31T07:23:56.691Z,10.21
2019-03-31T07:25:00.458Z,10.25
2019-03-31T07:26:04.131Z,10.30
2019-03-31T07:27:07.803Z,10.32
2019-03-31T07:28:11.354Z,10.33
2019-03-31T07:29:15.055Z,10.36
2019-03-31T07:30:19.852Z,10.40
2019-03-31T07:31:23.303Z,10.46
2019-03-31T07:32:26.909Z,10.47
2019-03-31T07:33:30.564Z,10.55
2019-03-31T07:34:34.184Z,10.58
2019-03-31T07:35:39.124Z,10.59
2019-03-31T07:36:43.177Z,10.63
2019-03-31T07:37:47.831Z,10.68
2019-03-31T07:38:51.737Z,10.73
2019-03-31T07:39:55.700Z,10.77
2019-03-31T07:41:12.018Z,10.82
2019-03-31T07:42:05.019Z,10.85
2019-03-31T07:43:08.788Z,10.85
2019-03-31T07:44:15.224Z,10.84
2019-03-31T07:45:17.983Z,10.84
2019-03-31T07:46:21.492Z,10.85
2019-03-31T07:47:25.157Z,10.89
2019-03-31T07:48:28.673Z,10.95
2019-03-31T07:49:32.174Z,11.01
2019-03-31T07:50:35.679Z,11.02
2019-03-31T07:51:39.120Z,11.04
2019-03-31T07:52:42.971Z,11.09
2019-03-31T07:53:46.418Z,11.12
2019-03-31T07:54:49.708Z,11.17
2019-03-31T07:55:53.182Z,11.22
2019-03-31T07:56:56.589Z,11.27
2019-03-31T07:58:00.115Z,11.27
2019-03-31T07:59:03.514Z,11.31
2019-03-31T08:00:14.145Z,11.37
2019-03-31T08:01:17.694Z,11.37
2019-03-31T08:02:21.144Z,11.43
2019-03-31T08:03:24.598Z,11.49
2019-03-31T08:04:28.031Z,11.55
2019-03-31T08:05:33.350Z,11.59
2019-03-31T08:06:36.699Z,11.63
2019-03-31T08:07:40.297Z,11.67
2019-03-31T08:08:43.730Z,11.71
2019-03-31T08:09:47.264Z,11.75
2019-03-31T08:10:50.727Z,11.79
2019-03-31T08:11:54.141Z,11.85
2019-03-31T08:12:57.618Z,11.94
2019-03-31T08:14:01.072Z,11.94
2019-03-31T08:15:06.614Z,11.96
2019-03-31T08:16:10.054Z,11.97
2019-03-31T08:17:13.487Z,11.97
2019-03-31T08:18:16.945Z,11.98
2019-03-31T08:19:20.856Z,11.99
2019-03-31T08:20:24.428Z,12.05
2019-03-31T08:21:27.868Z,12.12
2019-03-31T08:22:31.373Z,12.16
2019-03-31T08:23:38.001Z,12.20
2019-03-31T08:24:43.845Z,12.22
2019-03-31T08:25:47.329Z,12.26
2019-03-31T08:26:50.794Z,12.31
2019-03-31T08:27:54.350Z,12.35
2019-03-31T08:28:58.711Z,12.38
2019-03-31T08:30:02.207Z,12.40
2019-03-31T08:31:05.667Z,12.39
2019-03-31T08:32:09.515Z,12.41
2019-03-31T08:33:12.973Z,12.44
2019-03-31T08:34:16.417Z,12.53
2019-03-31T08:35:19.987Z,12.61
2019-03-31T08:36:23.424Z,12.72
2019-03-31T08:37:26.865Z,12.81
2019-03-31T08:38:30.311Z,12.85
2019-03-31T08:39:33.813Z,12.85
2019-03-31T08:40:37.322Z,12.87
2019-03-31T08:41:40.761Z,12.90
2019-03-31T08:42:44.258Z,12.92
2019-03-31T08:43:47.717Z,12.92
2019-03-31T08:44:51.146Z,13.00
2019-03-31T08:45:54.586Z,13.08
2019-03-31T08:46:58.022Z,13.13
2019-03-31T08:48:01.555Z,13.23
2019-03-31T08:49:04.985Z,13.28
2019-03-31T08:50:09.803Z,13.32
2019-03-31T08:51:13.294Z,13.40
2019-03-31T08:52:16.797Z,13.43
2019-03-31T08:53:20.329Z,13.49
2019-03-31T08:54:23.760Z,13.52
2019-03-31T08:55:27.208Z,13.54
2019-03-31T08:56:30.645Z,13.58
2019-03-31T08:57:34.080Z,13.60
2019-03-31T08:58:37.546Z,13.67
2019-03-31T08:59:41.010Z,13.71
2019-03-31T09:00:49.048Z,13.71
2019-03-31T09:01:52.521Z,13.69
2019-03-31T09:02:55.997Z,13.73
2019-03-31T09:03:59.421Z,13.80
2019-03-31T09:05:05.199Z,13.86
2019-03-31T09:06:08.787Z,13.85
2019-03-31T09:07:12.288Z,13.84
2019-03-31T09:08:15.793Z,13.83
2019-03-31T09:09:19.251Z,13.82
2019-03-31T09:10:22.702Z,13.79
2019-03-31T09:11:26.141Z,13.82
2019-03-31T09:12:29.700Z,13.94
2019-03-31T09:13:35.295Z,14.06
2019-03-31T09:14:38.374Z,14.15
2019-03-31T09:15:41.778Z,14.20
2019-03-31T09:16:45.217Z,14.25
2019-03-31T09:17:48.725Z,14.24
2019-03-31T09:18:52.182Z,14.29
2019-03-31T09:19:55.635Z,14.31
2019-03-31T09:20:59.072Z,14.31
2019-03-31T09:22:02.595Z,14.37
2019-03-31T09:23:06.175Z,14.45
2019-03-31T09:24:09.630Z,14.49
2019-03-31T09:25:13.528Z,14.54
2019-03-31T09:26:17.021Z,14.56
2019-03-31T09:27:20.445Z,14.53
2019-03-31T09:28:23.893Z,14.54
2019-03-31T09:29:27.363Z,14.60
2019-03-31T09:30:30.898Z,14.66
2019-03-31T09:31:34.371Z,14.69
2019-03-31T09:32:37.849Z,14.63
2019-03-31T09:33:41.300Z,14.64
2019-03-31T09:34:44.751Z,14.68
2019-03-31T09:35:48.280Z,14.73
2019-03-31T09:36:51.789Z,14.76
2019-03-31T09:37:55.255Z,14.79
2019-03-31T09:38:58.693Z,14.86
2019-03-31T09:40:02.224Z,14.93
2019-03-31T09:41:05.749Z,14.90
2019-03-31T09:42:09.187Z,14.90
2019-03-31T09:43:12.626Z,14.90
2019-03-31T09:44:16.061Z,14.88
2019-03-31T09:45:19.790Z,14.85
2019-03-31T09:46:23.230Z,14.83
2019-03-31T09:47:26.658Z,14.83
2019-03-31T09:48:30.247Z,14.93
2019-03-31T09:49:33.748Z,14.89
2019-03-31T09:50:37.213Z,14.84
2019-03-31T09:51:40.691Z,14.89
2019-03-31T09:52:44.280Z,15.01
2019-03-31T09:53:47.866Z,15.13
2019-03-31T09:54:51.432Z,15.18
2019-03-31T09:55:54.924Z,15.19
2019-03-31T09:56:58.441Z,15.28
2019-03-31T09:58:01.864Z,15.30
2019-03-31T09:59:05.438Z,15.32
2019-03-31T10:00:18.776Z,15.30
2019-03-31T10:01:22.236Z,15.40
2019-03-31T10:02:25.670Z,15.51
2019-03-31T10:03:29.125Z,15.55
2019-03-31T10:04:32.636Z,15.54
2019-03-31T10:05:36.166Z,15.58
2019-03-31T10:06:40.165Z,15.61
2019-03-31T10:07:43.671Z,15.56
2019-03-31T10:08:48.082Z,15.61
2019-03-31T10:09:52.363Z,15.70
2019-03-31T10:10:55.906Z,15.74
2019-03-31T10:11:59.409Z,15.76
2019-03-31T10:13:02.854Z,15.82
2019-03-31T10:14:06.359Z,15.77
2019-03-31T10:15:10.227Z,15.78
2019-03-31T10:16:13.687Z,15.81
2019-03-31T10:17:17.119Z,15.89
2019-03-31T10:18:20.558Z,15.93
2019-03-31T10:19:24.138Z,15.92
2019-03-31T10:20:31.164Z,15.93
2019-03-31T10:21:32.851Z,15.92
2019-03-31T10:22:36.434Z,15.91
2019-03-31T10:23:39.865Z,15.92
2019-03-31T10:24:43.372Z,15.94
2019-03-31T10:25:46.884Z,16.00
2019-03-31T10:26:50.407Z,16.10
2019-03-31T10:27:53.844Z,16.15
2019-03-31T10:28:57.275Z,16.26
2019-03-31T10:30:00.719Z,16.32
2019-03-31T10:31:04.363Z,16.33
2019-03-31T10:32:07.819Z,16.36
2019-03-31T10:33:11.285Z,16.30
2019-03-31T10:34:14.697Z,16.19
2019-03-31T10:35:18.129Z,16.19
2019-03-31T10:36:21.663Z,16.33
2019-03-31T10:37:25.132Z,16.39
2019-03-31T10:38:28.646Z,16.49
2019-03-31T10:39:32.081Z,16.61
2019-03-31T10:40:35.661Z,16.71
2019-03-31T10:41:39.204Z,16.53
2019-03-31T10:42:42.658Z,16.60
2019-03-31T10:43:46.153Z,16.70
2019-03-31T10:44:49.597Z,16.70
2019-03-31T10:45:53.034Z,16.80
2019-03-31T10:46:58.429Z,16.87
2019-03-31T10:48:01.792Z,16.89
2019-03-31T10:49:05.305Z,16.96
2019-03-31T10:50:09.095Z,17.08
2019-03-31T10:51:12.618Z,17.07
2019-03-31T10:52:16.144Z,17.07
2019-03-31T10:53:19.835Z,17.12
2019-03-31T10:54:23.271Z,17.18
2019-03-31T10:55:26.773Z,17.12
2019-03-31T10:56:30.221Z,17.10
2019-03-31T10:57:33.675Z,17.13
2019-03-31T10:58:37.121Z,17.01
2019-03-31T10:59:40.810Z,17.16
2019-03-31T11:00:44.917Z,17.23
2019-03-31T11:01:48.423Z,17.32
2019-03-31T11:02:52.032Z,17.43
2019-03-31T11:03:55.482Z,17.58
2019-03-31T11:04:58.932Z,17.60
2019-03-31T11:06:02.371Z,17.62
2019-03-31T11:07:06.031Z,17.65
2019-03-31T11:08:09.628Z,17.68
2019-03-31T11:09:13.145Z,17.56
2019-03-31T11:10:16.888Z,17.56
2019-03-31T11:11:20.462Z,17.55
2019-03-31T11:12:23.896Z,17.66
2019-03-31T11:13:28.272Z,17.72
2019-03-31T11:14:31.871Z,17.80
2019-03-31T11:15:35.490Z,17.79
2019-03-31T11:16:39.050Z,17.82
2019-03-31T11:17:42.502Z,17.87
2019-03-31T11:18:45.967Z,17.80
2019-03-31T11:19:49.551Z,17.72
2019-03-31T11:20:53.125Z,17.77
2019-03-31T11:21:58.226Z,17.81
2019-03-31T11:23:06.052Z,17.80
2019-03-31T11:24:09.495Z,17.91
2019-03-31T11:25:21.086Z,18.01
2019-03-31T11:26:18.323Z,18.08
2019-03-31T11:27:21.828Z,18.16
2019-03-31T11:28:25.360Z,18.23
2019-03-31T11:29:28.959Z,18.28
2019-03-31T11:30:32.372Z,18.33
2019-03-31T11:31:35.949Z,18.25
2019-03-31T11:32:39.577Z,18.29
2019-03-31T11:33:43.097Z,18.45
2019-03-31T11:34:46.622Z,18.63
2019-03-31T11:35:50.315Z,18.76
2019-03-31T11:36:53.963Z,18.79
2019-03-31T11:37:57.479Z,18.81
2019-03-31T11:39:00.950Z,18.85
2019-03-31T11:40:06.724Z,18.91
2019-03-31T11:41:10.344Z,18.99
2019-03-31T11:42:13.855Z,19.06
2019-03-31T11:43:17.445Z,19.07
2019-03-31T11:44:20.969Z,19.09
2019-03-31T11:45:24.539Z,19.17
2019-03-31T11:46:28.046Z,19.22
2019-03-31T11:47:31.545Z,19.23
2019-03-31T11:48:34.980Z,19.19
2019-03-31T11:49:38.442Z,19.19
2019-03-31T11:50:41.949Z,19.26
2019-03-31T11:51:45.498Z,19.37
2019-03-31T11:52:48.908Z,19.33
2019-03-31T11:53:52.486Z,19.45
2019-03-31T11:54:55.943Z,19.62
2019-03-31T11:55:59.400Z,19.77
2019-03-31T11:57:02.836Z,19.75
2019-03-31T11:58:06.267Z,19.82
2019-03-31T11:59:09.972Z,19.84
2019-03-31T12:00:15.351Z,19.86
2019-03-31T12:01:18.791Z,19.95
2019-03-31T12:02:27.331Z,19.98
2019-03-31T12:03:30.744Z,20.07
2019-03-31T12:04:33.190Z,20.22
2019-03-31T12:05:36.707Z,20.24
2019-03-31T12:06:40.430Z,20.33
2019-03-31T12:07:47.093Z,20.55
2019-03-31T12:08:49.111Z,20.71
2019-03-31T12:09:52.552Z,20.66
2019-03-31T12:10:56.147Z,20.58
2019-03-31T12:11:59.883Z,20.59
2019-03-31T12:13:03.524Z,20.76
2019-03-31T12:14:07.030Z,20.97
2019-03-31T12:15:11.417Z,21.24
2019-03-31T12:16:14.942Z,21.57
2019-03-31T12:17:18.455Z,21.77
2019-03-31T12:18:21.917Z,22.01
2019-03-31T12:19:25.370Z,22.29
2019-03-31T12:20:28.809Z,22.38
2019-03-31T12:21:32.262Z,22.51
2019-03-31T12:22:35.782Z,22.68
2019-03-31T12:23:39.295Z,23.04
2019-03-31T12:24:42.730Z,23.26
2019-03-31T12:25:46.168Z,23.10
2019-03-31T12:26:49.623Z,22.93
2019-03-31T12:27:53.066Z,23.03
2019-03-31T12:28:56.511Z,23.11
2019-03-31T12:29:59.942Z,23.11
2019-03-31T12:31:03.380Z,23.32
2019-03-31T12:32:06.903Z,23.29
2019-03-31T12:33:10.333Z,23.39
2019-03-31T12:34:13.841Z,23.55
2019-03-31T12:35:17.319Z,23.69
2019-03-31T12:36:20.848Z,24.26
2019-03-31T12:37:24.276Z,24.75
2019-03-31T12:38:27.772Z,25.13
2019-03-31T12:39:31.311Z,24.83
2019-03-31T12:40:36.466Z,25.18
2019-03-31T12:41:39.916Z,25.64
2019-03-31T12:42:43.369Z,26.10
2019-03-31T12:43:46.800Z,26.26
2019-03-31T12:44:50.244Z,26.64
2019-03-31T12:45:53.759Z,27.06
2019-03-31T12:46:57.232Z,27.46
2019-03-31T12:48:01.453Z,28.10
2019-03-31T12:49:05.347Z,28.32
2019-03-31T12:50:08.961Z,28.32
2019-03-31T12:51:12.463Z,28.15
2019-03-31T12:52:15.923Z,27.69
2019-03-31T12:53:19.356Z,27.53
2019-03-31T12:54:22.798Z,27.53
2019-03-31T12:55:26.233Z,27.25
2019-03-31T12:56:29.759Z,27.19
2019-03-31T12:57:33.273Z,27.57
2019-03-31T12:58:36.706Z,27.57
2019-03-31T12:59:40.145Z,27.57
2019-03-31T13:00:43.577Z,27.69
2019-03-31T13:01:47.111Z,28.11
2019-03-31T13:02:50.620Z,28.25
2019-03-31T13:03:54.070Z,28.49
2019-03-31T13:04:57.499Z,28.49
2019-03-31T13:06:00.934Z,28.91
2019-03-31T13:07:04.450Z,28.36
2019-03-31T13:08:07.962Z,28.36
2019-03-31T13:09:11.480Z,28.13
2019-03-31T13:10:15.120Z,28.36
2019-03-31T13:11:18.551Z,28.71
2019-03-31T13:12:22.007Z,28.66
2019-03-31T13:13:25.434Z,28.60
2019-03-31T13:14:28.869Z,28.55
2019-03-31T13:15:32.308Z,28.39
2019-03-31T13:16:35.751Z,28.15
2019-03-31T13:17:39.179Z,28.36
2019-03-31T13:18:42.694Z,28.56
2019-03-31T13:19:46.189Z,28.68
2019-03-31T13:20:49.985Z,28.64
2019-03-31T13:21:53.455Z,28.65
2019-03-31T13:22:56.919Z,28.93
2019-03-31T13:24:00.418Z,29.06
2019-03-31T13:25:04.892Z,29.02
2019-03-31T13:26:08.330Z,28.75
2019-03-31T13:27:11.791Z,29.19
2019-03-31T13:28:15.240Z,29.78
2019-03-31T13:29:18.668Z,30.85
2019-03-31T13:30:22.314Z,31.37
2019-03-31T13:31:25.715Z,31.93
2019-03-31T13:32:29.167Z,32.41
2019-03-31T13:33:32.607Z,32.70
2019-03-31T13:34:36.117Z,32.96
2019-03-31T13:35:39.634Z,32.60
2019-03-31T13:36:43.136Z,32.99
2019-03-31T13:37:46.671Z,33.80
2019-03-31T13:38:50.121Z,33.80
2019-03-31T13:39:53.551Z,33.91
2019-03-31T13:40:57.128Z,34.24
2019-03-31T13:42:00.642Z,34.77
2019-03-31T13:43:04.305Z,35.07
2019-03-31T13:44:07.837Z,35.32
2019-03-31T13:45:11.911Z,34.44
2019-03-31T13:46:15.480Z,34.72
2019-03-31T13:47:19.108Z,35.06
2019-03-31T13:48:22.546Z,34.23
2019-03-31T13:49:26.056Z,33.10
2019-03-31T13:50:29.579Z,31.95
2019-03-31T13:51:33.010Z,31.56
2019-03-31T13:52:36.653Z,30.93
2019-03-31T13:53:40.155Z,30.45
2019-03-31T13:54:43.643Z,30.33